Impacts TAF Board INFO
FOR SITUATIONAL AWARENESS. NOT TO BE USED FOR FLIGHT PLANNING PURPOSES.
IDs:

KDFW - Dallas-Ft Worth Intl, TX, US

Issued at 2059 UTC 16 Jan 2018
Updated at 2113 UTC 16 Jan 2018
Potential Impact None Slight Moderate High
Time<<17/10Z 17/11Z 17/12Z 17/13Z 17/14Z 17/15Z 17/16Z 17/17Z 17/18Z 17/19Z 17/20Z 17/21Z 17/22Z>>
Type PRVL PRVL PRVL PRVL PRVL PRVL PRVL PRVL PRVL PRVL PRVL PRVL PRVL
VIS >6 >6 >6 >6 >6 >6 >6 >6 >6 >6 >6 >6 >6
CIG -- -- -- -- -- -- -- -- -- -- -- -- --
Cover SKC SKC SKC SKC SKC SKC SKC SKC SKC SKC SKC SKC SKC
FltCat VFR VFR VFR VFR VFR VFR VFR VFR VFR VFR VFR VFR VFR
WX -- -- -- -- -- -- -- -- -- -- -- -- --
WDir 10 10 10 10 10 10 10 10 130 130 130 130 130
WSpd 7 7 7 7 7 7 7 7 5 5 5 5 5
WGst -- -- -- -- -- -- -- -- -- -- -- -- --

Raw TAF
KDFW 162059Z 1621/1724 36015KT P6SM SCT250
  FM170000 01007KT P6SM SKC
  FM171800 13005KT P6SM SKC


METAR Board
Radar Display
Forecast Discussion

FOR SITUATIONAL AWARENESS. NOT TO BE USED FOR FLIGHT PLANNING PURPOSES.